createdAt,value
2019-04-25T00:01:36.628Z,12.90
2019-04-25T00:04:04.948Z,12.80
2019-04-25T00:06:33.695Z,12.80
2019-04-25T00:09:02.103Z,12.70
2019-04-25T00:11:31.263Z,12.70
2019-04-25T00:13:59.487Z,12.70
2019-04-25T00:16:29.370Z,12.60
2019-04-25T00:18:57.610Z,12.50
2019-04-25T00:21:36.630Z,12.50
2019-04-25T00:24:06.870Z,12.40
2019-04-25T00:26:36.758Z,12.40
2019-04-25T00:29:05.035Z,12.40
2019-04-25T00:31:33.388Z,12.50
2019-04-25T00:34:02.164Z,12.20
2019-04-25T00:36:31.859Z,12.10
2019-04-25T00:39:01.876Z,12.10
2019-04-25T00:41:31.973Z,12.00
2019-04-25T00:44:00.265Z,12.00
2019-04-25T00:46:28.592Z,11.90
2019-04-25T00:48:56.828Z,11.80
2019-04-25T00:51:25.073Z,11.80
2019-04-25T00:53:54.727Z,11.90
2019-04-25T00:56:23.150Z,11.80
2019-04-25T00:58:54.136Z,11.60
2019-04-25T01:01:31.702Z,11.50
2019-04-25T01:04:00.144Z,11.50
2019-04-25T01:06:28.386Z,11.40
2019-04-25T01:08:56.647Z,11.50
2019-04-25T01:11:24.927Z,11.40
2019-04-25T01:13:53.564Z,11.30
2019-04-25T01:16:22.619Z,11.30
2019-04-25T01:18:50.941Z,11.30
2019-04-25T01:21:19.219Z,11.30
2019-04-25T01:23:47.491Z,11.30
2019-04-25T01:26:15.769Z,11.10
2019-04-25T01:28:44.089Z,11.10
2019-04-25T01:31:13.990Z,11.00
2019-04-25T01:33:43.339Z,10.90
2019-04-25T01:36:29.876Z,11.00
2019-04-25T01:39:11.953Z,11.00
2019-04-25T01:41:44.565Z,11.00
2019-04-25T01:44:14.437Z,11.10
2019-04-25T01:46:44.190Z,11.00
2019-04-25T01:49:13.927Z,11.10
2019-04-25T01:51:43.691Z,11.00
2019-04-25T01:54:13.929Z,11.00
2019-04-25T01:56:42.051Z,10.90
2019-04-25T01:59:10.282Z,10.80
2019-04-25T02:01:40.227Z,10.80
2019-04-25T02:04:08.534Z,10.70
2019-04-25T02:06:36.776Z,10.70
2019-04-25T02:09:08.423Z,10.70
2019-04-25T02:11:55.428Z,10.70
2019-04-25T02:14:23.909Z,10.60
2019-04-25T02:16:53.188Z,10.60
2019-04-25T02:19:22.142Z,10.60
2019-04-25T02:21:50.391Z,10.50
2019-04-25T02:24:18.659Z,10.60
2019-04-25T02:26:46.939Z,10.60
2019-04-25T02:29:15.207Z,10.50
2019-04-25T02:31:45.029Z,10.40
2019-04-25T02:34:17.513Z,10.30
2019-04-25T02:36:44.321Z,10.30
2019-04-25T02:39:17.041Z,10.40
2019-04-25T02:41:45.450Z,10.40
2019-04-25T02:44:14.553Z,10.20
2019-04-25T02:46:55.861Z,10.10
2019-04-25T02:49:38.653Z,10.00
2019-04-25T02:52:06.905Z,9.90
2019-04-25T02:54:34.787Z,9.90
2019-04-25T02:57:06.545Z,9.80
2019-04-25T02:59:36.642Z,9.70
2019-04-25T03:02:05.787Z,9.70
2019-04-25T03:04:33.978Z,9.70
2019-04-25T03:07:06.834Z,9.70
2019-04-25T03:09:32.308Z,9.70
2019-04-25T03:12:04.889Z,9.70
2019-04-25T03:14:34.967Z,9.70
2019-04-25T03:17:05.080Z,9.70
2019-04-25T03:19:34.327Z,9.60
2019-04-25T03:22:11.773Z,9.70
2019-04-25T03:24:40.338Z,9.70
2019-04-25T03:27:09.141Z,9.70
2019-04-25T03:29:37.513Z,9.70
2019-04-25T03:32:11.330Z,9.60
2019-04-25T03:34:35.765Z,9.50
2019-04-25T03:37:05.299Z,9.50
2019-04-25T03:39:33.888Z,9.50
2019-04-25T03:42:02.228Z,9.40
2019-04-25T03:44:31.070Z,9.40
2019-04-25T03:46:59.302Z,9.30
2019-04-25T03:49:27.570Z,9.30
2019-04-25T03:51:55.836Z,9.30
2019-04-25T03:54:24.112Z,9.30
2019-04-25T03:56:55.537Z,9.30
2019-04-25T03:59:23.637Z,9.30
2019-04-25T04:01:53.616Z,9.30
2019-04-25T04:04:23.581Z,9.40
2019-04-25T04:06:53.590Z,9.30
2019-04-25T04:09:23.892Z,9.20
2019-04-25T04:11:53.462Z,9.30
2019-04-25T04:14:21.892Z,9.30
2019-04-25T04:17:10.708Z,9.10
2019-04-25T04:19:40.818Z,9.10
2019-04-25T04:22:19.881Z,9.10
2019-04-25T04:24:49.791Z,9.10
2019-04-25T04:27:18.225Z,9.20
2019-04-25T04:29:46.466Z,9.20
2019-04-25T04:32:15.999Z,9.20
2019-04-25T04:34:45.469Z,9.10
2019-04-25T04:37:14.817Z,9.10
2019-04-25T04:39:43.860Z,9.10
2019-04-25T04:42:13.721Z,9.10
2019-04-25T04:44:43.732Z,9.10
2019-04-25T04:47:14.097Z,9.20
2019-04-25T04:49:43.816Z,9.10
2019-04-25T04:52:12.916Z,9.10
2019-04-25T04:54:43.884Z,9.10
2019-04-25T04:57:26.100Z,9.20
2019-04-25T04:59:43.736Z,9.30
2019-04-25T05:02:15.829Z,9.50
2019-04-25T05:04:57.588Z,9.60
2019-04-25T05:07:39.410Z,9.60
2019-04-25T05:10:07.684Z,9.60
2019-04-25T05:12:35.935Z,9.70
2019-04-25T05:15:06.615Z,9.60
2019-04-25T05:17:35.885Z,9.70
2019-04-25T05:20:07.575Z,9.90
2019-04-25T05:22:35.847Z,9.90
2019-04-25T05:25:07.263Z,10.00
2019-04-25T05:27:46.344Z,10.20
2019-04-25T05:30:08.930Z,10.40
2019-04-25T05:32:37.261Z,10.40
2019-04-25T05:35:06.237Z,10.50
2019-04-25T05:37:34.499Z,10.60
2019-04-25T05:40:03.407Z,10.70
2019-04-25T05:42:46.555Z,10.90
2019-04-25T05:45:16.317Z,11.00
2019-04-25T05:47:45.167Z,11.20
2019-04-25T05:50:13.916Z,11.30
2019-04-25T05:52:43.906Z,11.50
2019-04-25T05:55:14.270Z,11.70
2019-04-25T05:57:47.425Z,11.80
2019-04-25T06:00:13.468Z,11.90
2019-04-25T06:02:42.302Z,12.10
2019-04-25T06:05:12.788Z,12.20
2019-04-25T06:07:43.128Z,12.40
2019-04-25T06:10:15.934Z,12.50
2019-04-25T06:12:54.959Z,12.70
2019-04-25T06:15:25.068Z,12.90
2019-04-25T06:17:55.572Z,13.10
2019-04-25T06:20:25.759Z,13.30
2019-04-25T06:22:55.674Z,13.40
2019-04-25T06:25:30.720Z,13.70
2019-04-25T06:27:59.230Z,13.90
2019-04-25T06:30:29.622Z,14.10
2019-04-25T06:32:57.930Z,14.30
2019-04-25T06:35:27.247Z,14.50
2019-04-25T06:37:55.811Z,14.70
2019-04-25T06:40:26.313Z,15.00
2019-04-25T06:42:55.398Z,15.20
2019-04-25T06:45:37.081Z,15.30
2019-04-25T06:48:26.048Z,15.50
2019-04-25T06:50:55.091Z,15.80
2019-04-25T06:53:25.663Z,16.10
2019-04-25T06:55:53.626Z,16.30
2019-04-25T06:58:23.262Z,16.50
2019-04-25T07:00:58.909Z,16.70
2019-04-25T07:03:22.842Z,16.90
2019-04-25T07:05:53.442Z,17.30
2019-04-25T07:08:23.043Z,17.60
2019-04-25T07:10:51.801Z,17.80
2019-04-25T07:13:20.043Z,18.00
2019-04-25T07:15:48.315Z,18.20
2019-04-25T07:18:16.566Z,18.40
2019-04-25T07:20:45.349Z,18.60
2019-04-25T07:23:13.672Z,18.80
2019-04-25T07:25:43.858Z,19.20
2019-04-25T07:28:31.180Z,19.40
2019-04-25T07:31:07.598Z,19.70
2019-04-25T07:33:37.483Z,19.80
2019-04-25T07:36:05.726Z,20.00
2019-04-25T07:38:34.945Z,20.30
2019-04-25T07:41:03.619Z,20.40
2019-04-25T07:43:33.813Z,20.60
2019-04-25T07:46:03.307Z,20.80
2019-04-25T07:48:34.229Z,20.90
2019-04-25T07:51:03.728Z,21.20
2019-04-25T07:53:33.926Z,21.20
2019-04-25T07:56:04.262Z,21.30
2019-04-25T07:58:52.167Z,21.40
2019-04-25T08:01:13.854Z,21.50
2019-04-25T08:03:43.811Z,21.70
2019-04-25T08:06:13.745Z,22.20
2019-04-25T08:08:43.629Z,22.50
2019-04-25T08:11:14.021Z,22.60
2019-04-25T08:13:44.177Z,23.00
2019-04-25T08:16:14.587Z,23.20
2019-04-25T08:18:43.356Z,23.20
2019-04-25T08:21:11.739Z,23.40
2019-04-25T08:23:40.018Z,23.60
2019-04-25T08:26:08.279Z,24.00
2019-04-25T08:28:48.831Z,24.30
2019-04-25T08:31:06.650Z,24.30
2019-04-25T08:33:36.905Z,24.60
2019-04-25T08:36:09.191Z,24.80
2019-04-25T08:38:36.071Z,25.10
2019-04-25T08:41:05.746Z,25.30
2019-04-25T08:43:34.815Z,25.70
2019-04-25T08:46:04.266Z,26.00
2019-04-25T08:48:34.929Z,26.20
2019-04-25T08:51:05.642Z,26.30
2019-04-25T08:53:36.634Z,26.70
2019-04-25T08:56:06.565Z,26.80
2019-04-25T08:58:39.202Z,26.80
2019-04-25T09:01:11.970Z,27.00
2019-04-25T09:03:50.815Z,27.10
2019-04-25T09:06:19.088Z,27.00
2019-04-25T09:08:47.379Z,27.00
2019-04-25T09:11:16.034Z,27.40
2019-04-25T09:13:45.057Z,27.40
2019-04-25T09:16:15.385Z,27.50
2019-04-25T09:18:44.299Z,27.70
2019-04-25T09:21:14.553Z,27.50
2019-04-25T09:23:43.740Z,27.20
2019-04-25T09:26:14.261Z,27.40
2019-04-25T09:28:45.312Z,27.50
2019-04-25T09:31:13.946Z,28.00
2019-04-25T09:33:43.801Z,27.70
2019-04-25T09:36:14.112Z,27.90
2019-04-25T09:38:45.100Z,28.10
2019-04-25T09:41:15.285Z,28.40
2019-04-25T09:43:45.709Z,28.50
2019-04-25T09:46:18.376Z,28.30
2019-04-25T09:48:48.282Z,28.10
2019-04-25T09:51:18.157Z,28.10
2019-04-25T09:53:51.007Z,28.20
2019-04-25T09:56:26.714Z,28.40
2019-04-25T09:58:59.571Z,28.60
2019-04-25T10:01:27.904Z,29.00
2019-04-25T10:03:56.143Z,29.30
2019-04-25T10:06:24.397Z,30.00
2019-04-25T10:08:54.195Z,30.20
2019-04-25T10:11:23.735Z,30.40
2019-04-25T10:14:01.331Z,30.40
2019-04-25T10:16:29.616Z,30.60
2019-04-25T10:18:57.859Z,31.20
2019-04-25T10:21:26.184Z,31.20
2019-04-25T10:23:54.494Z,31.30
2019-04-25T10:26:22.807Z,31.50
2019-04-25T10:28:51.797Z,31.50
2019-04-25T10:31:21.452Z,31.60
2019-04-25T10:33:49.690Z,32.00
2019-04-25T10:36:17.939Z,32.50
2019-04-25T10:39:02.151Z,32.20
2019-04-25T10:41:17.883Z,32.20
2019-04-25T10:43:46.286Z,32.10
2019-04-25T10:46:14.551Z,31.60
2019-04-25T10:48:43.761Z,31.40
2019-04-25T10:51:13.908Z,31.80
2019-04-25T10:53:43.816Z,32.20
2019-04-25T10:56:13.973Z,31.70
2019-04-25T10:58:43.981Z,31.40
2019-04-25T11:01:15.079Z,31.50
2019-04-25T11:03:45.200Z,31.90
2019-04-25T11:06:15.200Z,31.80
2019-04-25T11:08:43.441Z,31.60
2019-04-25T11:11:11.709Z,31.50
2019-04-25T11:13:40.939Z,31.60
2019-04-25T11:16:09.969Z,31.90
2019-04-25T11:18:38.260Z,32.30
2019-04-25T11:21:06.547Z,32.20
2019-04-25T11:23:34.905Z,32.20
2019-04-25T11:26:03.861Z,32.10
2019-04-25T11:28:33.720Z,32.60
2019-04-25T11:31:04.973Z,32.60
2019-04-25T11:33:33.648Z,32.70
2019-04-25T11:36:01.920Z,33.00
2019-04-25T11:38:49.979Z,32.50
2019-04-25T11:41:19.850Z,32.50
2019-04-25T11:43:48.727Z,33.00
2019-04-25T11:46:17.394Z,31.60
2019-04-25T11:48:46.391Z,31.30
2019-04-25T11:51:14.736Z,32.00
2019-04-25T11:53:45.064Z,32.20
2019-04-25T11:56:13.767Z,32.40
2019-04-25T11:58:42.578Z,32.50
2019-04-25T12:01:13.830Z,32.50
2019-04-25T12:03:42.158Z,32.30
2019-04-25T12:06:12.171Z,32.20
2019-04-25T12:08:40.451Z,32.50
2019-04-25T12:11:08.711Z,32.60
2019-04-25T12:13:36.995Z,32.80
2019-04-25T12:16:05.234Z,32.80
2019-04-25T12:18:35.342Z,31.30
2019-04-25T12:21:04.243Z,31.10
2019-04-25T12:23:33.960Z,30.80
2019-04-25T12:26:03.848Z,30.20
2019-04-25T12:28:33.796Z,30.40
2019-04-25T12:31:02.194Z,29.90
2019-04-25T12:33:30.439Z,29.60
2019-04-25T12:35:58.687Z,29.80
2019-04-25T12:38:26.928Z,29.00
2019-04-25T12:40:55.735Z,28.50
2019-04-25T12:43:25.624Z,28.50
2019-04-25T12:46:07.306Z,28.50
2019-04-25T12:48:35.541Z,28.20
2019-04-25T12:51:03.892Z,28.70
2019-04-25T12:53:33.382Z,29.50
2019-04-25T12:56:02.103Z,29.80
2019-04-25T12:58:30.354Z,29.60
2019-04-25T13:01:00.063Z,28.60
2019-04-25T13:03:28.390Z,28.20
2019-04-25T13:05:56.654Z,28.40
2019-04-25T13:08:24.943Z,28.50
2019-04-25T13:10:54.394Z,28.80
2019-04-25T13:13:24.155Z,28.80
2019-04-25T13:15:53.321Z,28.80
2019-04-25T13:18:21.709Z,28.60
2019-04-25T13:20:49.946Z,28.20
2019-04-25T13:23:18.224Z,27.80
2019-04-25T13:25:46.464Z,27.90
2019-04-25T13:28:25.322Z,28.00
2019-04-25T13:31:12.994Z,28.20
2019-04-25T13:33:43.338Z,28.00
2019-04-25T13:36:13.273Z,28.00
2019-04-25T13:38:41.551Z,27.80
2019-04-25T13:41:09.862Z,27.70
2019-04-25T13:43:38.106Z,27.50
2019-04-25T13:46:06.379Z,27.60
2019-04-25T13:48:35.584Z,27.20
2019-04-25T13:51:04.137Z,26.90
2019-04-25T13:53:33.542Z,26.70
2019-04-25T13:56:03.304Z,26.60
2019-04-25T13:58:32.145Z,26.60
2019-04-25T14:01:12.289Z,26.50
2019-04-25T14:03:33.652Z,26.20
2019-04-25T14:06:01.489Z,26.20
2019-04-25T14:08:29.740Z,26.10
2019-04-25T14:10:57.965Z,26.00
2019-04-25T14:13:26.544Z,26.20
2019-04-25T14:15:56.505Z,26.10
2019-04-25T14:18:26.564Z,26.20
2019-04-25T14:20:56.529Z,26.00
2019-04-25T14:23:25.714Z,25.90
2019-04-25T14:25:54.014Z,25.90
2019-04-25T14:28:23.078Z,25.50
2019-04-25T14:30:52.226Z,25.30
2019-04-25T14:33:20.489Z,25.20
2019-04-25T14:35:48.827Z,25.20
2019-04-25T14:38:17.088Z,25.20
2019-04-25T14:40:45.352Z,25.10
2019-04-25T14:43:13.615Z,25.10
2019-04-25T14:45:44.932Z,24.90
2019-04-25T14:48:11.857Z,24.90
2019-04-25T14:50:40.115Z,25.00
2019-04-25T14:53:08.380Z,24.90
2019-04-25T14:55:56.067Z,24.80
2019-04-25T14:58:26.139Z,24.70
2019-04-25T15:00:54.385Z,24.80
2019-04-25T15:03:23.086Z,24.80
2019-04-25T15:05:52.265Z,24.70
2019-04-25T15:08:20.510Z,24.80
2019-04-25T15:10:48.783Z,24.90
2019-04-25T15:13:17.178Z,25.00
2019-04-25T15:15:45.422Z,25.00
2019-04-25T15:18:13.672Z,25.20
2019-04-25T15:20:41.960Z,25.00
2019-04-25T15:23:10.226Z,25.00
2019-04-25T15:25:39.260Z,24.90
2019-04-25T15:28:07.586Z,25.00
2019-04-25T15:30:38.281Z,25.20
2019-04-25T15:33:06.572Z,25.20
2019-04-25T15:35:39.196Z,25.20
2019-04-25T15:38:12.087Z,25.20
2019-04-25T15:40:41.999Z,25.20
2019-04-25T15:43:14.871Z,25.10
2019-04-25T15:45:47.710Z,25.30
2019-04-25T15:48:15.946Z,25.10
2019-04-25T15:50:44.204Z,25.10
2019-04-25T15:53:12.509Z,25.10
2019-04-25T15:55:40.848Z,25.10
2019-04-25T15:58:09.109Z,25.10
2019-04-25T16:00:38.718Z,25.00
2019-04-25T16:03:07.242Z,25.10
2019-04-25T16:05:35.713Z,25.10
2019-04-25T16:08:05.197Z,25.20
2019-04-25T16:10:35.108Z,25.00
2019-04-25T16:13:03.522Z,25.00
2019-04-25T16:15:31.818Z,25.00
2019-04-25T16:18:00.138Z,24.90
2019-04-25T16:20:29.479Z,24.90
2019-04-25T16:22:57.928Z,24.90
2019-04-25T16:25:26.162Z,25.00
2019-04-25T16:27:54.405Z,24.90
2019-04-25T16:30:24.325Z,24.90
2019-04-25T16:32:52.602Z,24.80
2019-04-25T16:35:20.945Z,24.70
2019-04-25T16:37:49.226Z,24.50
2019-04-25T16:40:17.455Z,24.40
2019-04-25T16:42:45.762Z,24.20
2019-04-25T16:45:14.078Z,24.20
2019-04-25T16:47:42.322Z,24.10
2019-04-25T16:50:10.694Z,24.10
2019-04-25T16:52:39.622Z,24.00
2019-04-25T16:55:08.866Z,24.00
2019-04-25T16:57:37.143Z,23.90
2019-04-25T17:00:09.971Z,23.90
2019-04-25T17:02:40.845Z,23.80
2019-04-25T17:05:09.945Z,23.70
2019-04-25T17:07:38.494Z,23.70
2019-04-25T17:10:06.994Z,23.50
2019-04-25T17:12:36.419Z,23.40
2019-04-25T17:15:20.109Z,23.30
2019-04-25T17:17:53.046Z,23.30
2019-04-25T17:20:22.923Z,23.10
2019-04-25T17:22:51.193Z,23.00
2019-04-25T17:25:19.890Z,23.00
2019-04-25T17:27:48.134Z,23.00
2019-04-25T17:30:16.729Z,22.90
2019-04-25T17:32:53.219Z,22.80
2019-04-25T17:35:24.198Z,22.70
2019-04-25T17:37:54.074Z,22.60
2019-04-25T17:40:23.984Z,22.50
2019-04-25T17:42:52.303Z,22.50
2019-04-25T17:45:22.178Z,22.30
2019-04-25T17:47:54.686Z,22.30
2019-04-25T17:50:20.999Z,22.20
2019-04-25T17:52:49.250Z,22.20
2019-04-25T17:55:17.512Z,22.10
2019-04-25T17:57:45.874Z,22.10
2019-04-25T18:00:15.895Z,22.00
2019-04-25T18:02:44.134Z,21.90
2019-04-25T18:05:12.375Z,21.90
2019-04-25T18:07:40.634Z,21.80
2019-04-25T18:10:10.337Z,21.80
2019-04-25T18:12:38.614Z,21.70
2019-04-25T18:15:08.509Z,21.60
2019-04-25T18:17:36.917Z,21.50
2019-04-25T18:20:14.080Z,21.60
2019-04-25T18:22:49.886Z,21.40
2019-04-25T18:25:28.744Z,21.30
2019-04-25T18:28:04.330Z,21.30
2019-04-25T18:30:32.584Z,21.20
2019-04-25T18:33:10.556Z,21.20
2019-04-25T18:35:41.685Z,21.10
2019-04-25T18:38:13.158Z,21.00
2019-04-25T18:40:44.054Z,20.90
2019-04-25T18:43:14.091Z,20.90
2019-04-25T18:45:44.478Z,20.90
2019-04-25T18:48:12.817Z,20.90
2019-04-25T18:50:42.532Z,20.80
2019-04-25T18:53:28.498Z,20.70
2019-04-25T18:56:07.528Z,20.60
2019-04-25T18:58:53.718Z,20.60
2019-04-25T19:01:38.010Z,20.50
2019-04-25T19:04:07.985Z,20.40
2019-04-25T19:06:36.218Z,20.40
2019-04-25T19:09:06.540Z,20.30
2019-04-25T19:11:34.782Z,20.20
2019-04-25T19:14:03.036Z,20.20
2019-04-25T19:16:31.686Z,20.20
2019-04-25T19:18:59.938Z,20.00
2019-04-25T19:21:29.073Z,20.00
2019-04-25T19:23:57.982Z,20.00
2019-04-25T19:26:27.406Z,19.90
2019-04-25T19:28:55.662Z,19.90
2019-04-25T19:31:23.969Z,19.90
2019-04-25T19:33:52.343Z,19.80
2019-04-25T19:36:21.051Z,19.70
2019-04-25T19:38:49.444Z,19.60
2019-04-25T19:41:25.568Z,19.60
2019-04-25T19:44:08.833Z,19.60
2019-04-25T19:46:42.827Z,19.50
2019-04-25T19:49:11.274Z,19.50
2019-04-25T19:51:41.638Z,19.50
2019-04-25T19:54:10.057Z,19.50
2019-04-25T19:56:38.369Z,19.40
2019-04-25T19:59:06.638Z,19.40
2019-04-25T20:01:34.874Z,19.40
2019-04-25T20:04:13.484Z,19.30
2019-04-25T20:06:43.467Z,19.40
2019-04-25T20:09:25.393Z,19.30
2019-04-25T20:11:55.005Z,19.30
2019-04-25T20:14:23.264Z,19.30
2019-04-25T20:16:51.770Z,19.20
2019-04-25T20:19:20.068Z,19.20
2019-04-25T20:21:48.470Z,19.10
2019-04-25T20:24:16.718Z,19.10
2019-04-25T20:26:45.330Z,19.10
2019-04-25T20:29:14.658Z,19.10
2019-04-25T20:31:42.947Z,19.00
2019-04-25T20:34:11.218Z,19.00
2019-04-25T20:36:39.583Z,18.90
2019-04-25T20:39:07.861Z,18.90
2019-04-25T20:41:36.112Z,18.80
2019-04-25T20:44:04.418Z,18.70
2019-04-25T20:46:32.681Z,18.70
2019-04-25T20:49:00.905Z,18.70
2019-04-25T20:51:29.154Z,18.70
2019-04-25T20:53:57.476Z,18.80
2019-04-25T20:56:25.751Z,18.70
2019-04-25T20:58:54.021Z,18.60
2019-04-25T21:01:22.277Z,18.60
2019-04-25T21:03:50.597Z,18.60
2019-04-25T21:06:23.237Z,18.50
2019-04-25T21:08:51.495Z,18.50
2019-04-25T21:11:19.832Z,18.40
2019-04-25T21:14:01.711Z,18.30
2019-04-25T21:16:50.403Z,18.30
2019-04-25T21:19:26.178Z,18.20
2019-04-25T21:21:54.413Z,18.20
2019-04-25T21:24:22.651Z,18.10
2019-04-25T21:26:51.684Z,18.10
2019-04-25T21:29:20.939Z,18.00
2019-04-25T21:31:51.141Z,17.90
2019-04-25T21:34:27.024Z,17.90
2019-04-25T21:36:49.337Z,17.90
2019-04-25T21:39:31.266Z,17.90
2019-04-25T21:42:17.287Z,17.90
2019-04-25T21:44:45.806Z,17.80
2019-04-25T21:47:14.125Z,17.80
2019-04-25T21:49:42.654Z,17.80
2019-04-25T21:52:10.897Z,17.70
2019-04-25T21:54:39.426Z,17.70
2019-04-25T21:57:07.857Z,17.60
2019-04-25T21:59:36.172Z,17.50
2019-04-25T22:02:04.890Z,17.40
2019-04-25T22:04:39.841Z,17.40
2019-04-25T22:07:03.230Z,17.30
2019-04-25T22:09:31.852Z,17.20
2019-04-25T22:12:01.183Z,17.10
2019-04-25T22:14:29.511Z,17.10
2019-04-25T22:16:58.036Z,17.20
2019-04-25T22:19:26.679Z,17.10
2019-04-25T22:21:55.198Z,17.00
2019-04-25T22:24:24.447Z,16.90
2019-04-25T22:26:54.353Z,16.80
2019-04-25T22:29:22.825Z,16.70
2019-04-25T22:31:59.380Z,16.60
2019-04-25T22:34:32.560Z,16.60
2019-04-25T22:37:00.805Z,16.50
2019-04-25T22:39:29.058Z,16.50
2019-04-25T22:41:57.609Z,16.40
2019-04-25T22:44:26.039Z,16.30
2019-04-25T22:46:54.659Z,16.20
2019-04-25T22:49:22.902Z,16.20
2019-04-25T22:51:51.162Z,16.10
2019-04-25T22:54:19.624Z,16.10
2019-04-25T22:56:47.862Z,16.00
2019-04-25T22:59:16.367Z,15.90
2019-04-25T23:01:46.296Z,15.90
2019-04-25T23:04:16.196Z,15.80
2019-04-25T23:06:44.745Z,15.70
2019-04-25T23:09:13.010Z,15.60
2019-04-25T23:11:41.262Z,15.60
2019-04-25T23:14:09.774Z,15.60
2019-04-25T23:16:38.926Z,15.50
2019-04-25T23:19:07.277Z,15.60
2019-04-25T23:21:35.881Z,15.70
2019-04-25T23:24:04.763Z,15.60
2019-04-25T23:26:35.678Z,15.60
2019-04-25T23:29:06.067Z,15.40
2019-04-25T23:31:36.033Z,15.30
2019-04-25T23:34:05.595Z,15.30
2019-04-25T23:36:34.393Z,15.20
2019-04-25T23:39:02.671Z,15.20
2019-04-25T23:41:31.191Z,15.20
2019-04-25T23:43:59.476Z,15.20
2019-04-25T23:46:31.120Z,15.20
2019-04-25T23:48:59.363Z,15.10
2019-04-25T23:51:27.662Z,15.10
2019-04-25T23:53:56.189Z,14.90
2019-04-25T23:56:24.455Z,14.90
2019-04-25T23:58:52.885Z,14.80
